SBPA/POA METAR and TAF weather

Enter ICAO airport designator
Station Type Date Time Source
SBPA METAR 2020/08/06 00:00 UTC NOAA

SBPA 060000Z 09006KT 8000 NSC 18/14 Q1021


Station Type Date Time Source
SBPA Decoded METAR 2020/08/06 00:00 UTC NOAA

Porto Alegre Aero-Porto , Brazil (SBPA) 30-00S 051-11W 3M
Aug 05, 2020 - 08:00 PM EDT / 2020.08.06 0000 UTC
Wind: from the E (090 degrees) at 7 MPH (6 KT):0
Visibility: 4 mile(s):0
Temperature: 64 F (18 C)
Dew Point: 57 F (14 C)
Relative Humidity: 77%
Pressure (altimeter): 30.15 in. Hg (1021 hPa)
ob: SBPA 060000Z 09006KT 8000 NSC 18/14 Q1021
cycle: 0

Station Type Date Time Source
SBPA TAF 2020/08/05 18:59 UTC NOAA

TAF SBPA 051500Z 0518/0618 33005KT CAVOK TN13/0608Z TX27/0617Z
BECMG 0519/0520 09005KT PROB30 0606/0610 35002KT 3000 BR NSC
BECMG 0612/0614 30006KT
RMK PEP

Example: see airport list